Time;durP1;ratioP1;P1;durP2;ratioP2;P2;SDS_P1;SDS_P2;PMS_P1;PMS_P2;Temp;Humidity;BMP_temperature;BMP_pressure;BME280_temperature;BME280_humidity;BME280_pressure;Samples;Min_cycle;Max_cycle;Signal;HPM_P1;HPM_P2
2022/06/14 00:01:35;;;;;;;6.18;2.70;;;615.10;1945.60;;;;;;5091886;28;20023;-77
2022/06/14 00:04:01;;;;;;;3.53;2.50;;;614.50;1945.60;;;;;;5093109;28;20073;-77
2022/06/14 00:06:31;;;;;;;5.00;2.22;;;615.10;1945.60;;;;;;5094336;28;20024;-77
2022/06/14 00:08:58;;;;;;;7.10;2.30;;;615.10;1894.40;;;;;;5092858;28;20315;-78
2022/06/14 00:11:26;;;;;;;5.25;2.17;;;615.10;1843.20;;;;;;5092584;28;20103;-78
2022/06/14 00:13:54;;;;;;;8.55;2.20;;;615.10;1843.20;;;;;;5079485;28;20099;-78
2022/06/14 00:16:21;;;;;;;6.75;2.65;;;615.00;1817.60;;;;;;5092948;28;20122;-77
2022/06/14 00:18:47;;;;;;;5.72;1.90;;;615.00;1792.00;;;;;;5092236;28;20047;-78
2022/06/14 00:21:13;;;;;;;5.72;1.95;;;615.10;1766.40;;;;;;5093861;28;20045;-77
2022/06/14 00:23:39;;;;;;;3.90;2.17;;;615.00;1766.40;;;;;;5078764;28;20021;-78
2022/06/14 00:26:05;;;;;;;4.78;2.17;;;615.00;1766.40;;;;;;5092345;28;20028;-78
2022/06/14 00:28:34;;;;;;;2.67;1.83;;;614.90;1766.40;;;;;;5093866;28;20381;-77
2022/06/14 00:31:10;;;;;;;3.63;2.00;;;614.90;1792.00;;;;;;5092469;28;20043;-78
2022/06/14 00:33:36;;;;;;;6.30;2.13;;;614.80;1792.00;;;;;;5091189;28;20099;-78
2022/06/14 00:36:06;;;;;;;6.60;2.67;;;614.80;1766.40;;;;;;5093564;28;20108;-77
2022/06/14 00:38:33;;;;;;;3.38;2.20;;;614.80;1792.00;;;;;;5093712;28;20487;-78
2022/06/14 00:41:00;;;;;;;7.18;2.47;;;614.80;1792.00;;;;;;5093708;28;20040;-77
2022/06/14 00:43:29;;;;;;;5.70;2.55;;;614.70;1817.60;;;;;;5093577;28;20020;-77
2022/06/14 00:46:13;;;;;;;8.18;2.70;;;614.70;1792.00;;;;;;5093827;28;20107;-78
2022/06/14 00:48:42;;;;;;;8.20;2.35;;;614.70;1740.80;;;;;;5090925;28;20020;-78
2022/06/14 00:51:14;;;;;;;4.13;2.50;;;614.60;1715.20;;;;;;5093302;28;20035;-78
2022/06/14 00:53:49;;;;;;;3.65;2.47;;;614.50;1740.80;;;;;;5089680;28;20058;-78
2022/06/14 00:56:26;;;;;;;6.85;2.08;;;614.50;1715.20;;;;;;5093191;28;20028;-77
2022/06/14 00:59:08;;;;;;;7.07;2.88;;;589.70;1740.80;;;;;;5091743;28;20026;-78
2022/06/14 01:01:37;;;;;;;6.13;2.40;;;589.70;1766.40;;;;;;5092665;28;20034;-78
2022/06/14 01:04:17;;;;;;;8.88;2.65;;;589.70;1740.80;;;;;;5091759;28;20042;-77
2022/06/14 01:07:16;;;;;;;6.65;2.22;;;589.70;1740.80;;;;;;5091112;28;20032;-77
2022/06/14 01:09:45;;;;;;;3.95;2.35;;;589.70;1740.80;;;;;;5078563;28;20031;-77
2022/06/14 01:12:15;;;;;;;5.93;2.55;;;614.60;1715.20;;;;;;5091158;28;20432;-77
2022/06/14 01:15:05;;;;;;;3.45;2.45;;;614.50;1715.20;;;;;;5090647;28;20035;-77
2022/06/14 01:17:41;;;;;;;3.42;2.15;;;614.50;1740.80;;;;;;5090689;28;20030;-78
2022/06/14 01:20:09;;;;;;;3.78;2.55;;;614.60;1715.20;;;;;;5091125;28;20480;-77
2022/06/14 01:22:35;;;;;;;3.78;2.38;;;614.70;1740.80;;;;;;5092754;28;20073;-78
2022/06/14 01:25:02;;;;;;;4.47;2.30;;;614.60;1766.40;;;;;;5091526;28;20020;-77
2022/06/14 01:27:34;;;;;;;4.30;2.33;;;614.60;1766.40;;;;;;5091385;28;20082;-77
2022/06/14 01:30:08;;;;;;;5.00;2.20;;;614.70;1766.40;;;;;;5088364;28;20020;-77
2022/06/14 01:32:44;;;;;;;7.93;2.33;;;614.70;1766.40;;;;;;5092620;28;20028;-77
2022/06/14 01:35:16;;;;;;;8.25;2.17;;;614.70;1766.40;;;;;;5091214;28;20069;-78
2022/06/14 01:37:44;;;;;;;3.70;2.58;;;614.60;1766.40;;;;;;5090285;28;20046;-77
2022/06/14 01:40:11;;;;;;;3.38;2.30;;;614.60;1766.40;;;;;;5092210;28;20109;-77
2022/06/14 01:43:01;;;;;;;3.50;2.10;;;589.70;1766.40;;;;;;5090916;28;20115;-77
2022/06/14 01:45:35;;;;;;;5.68;2.30;;;589.40;1817.60;;;;;;5090619;28;20029;-78
2022/06/14 01:48:07;;;;;;;3.05;2.08;;;589.10;1894.40;;;;;;5089749;28;20047;-78
2022/06/14 01:53:55;;;;;;;4.80;2.20;;;589.10;1894.40;;;;;;5090078;28;20027;-78
2022/06/14 01:56:34;;;;;;;5.63;2.60;;;589.00;1868.80;;;;;;5090873;28;20039;-78
2022/06/14 01:59:10;;;;;;;4.07;2.50;;;564.10;1920.00;;;;;;5091959;28;20020;-76
2022/06/14 02:01:44;;;;;;;9.70;2.65;;;588.80;1920.00;;;;;;5092319;28;20024;-77
2022/06/14 02:04:39;;;;;;;4.65;2.40;;;588.80;1894.40;;;;;;5090376;28;20027;-77
2022/06/14 02:07:26;;;;;;;6.25;2.50;;;588.80;1894.40;;;;;;5088322;28;20020;-77
2022/06/14 02:10:08;;;;;;;6.50;2.40;;;588.90;1843.20;;;;;;5090864;28;20572;-77
2022/06/14 02:12:45;;;;;;;5.32;2.50;;;564.10;1817.60;;;;;;5090954;28;20027;-78
2022/06/14 02:15:34;;;;;;;5.45;2.17;;;564.10;1843.20;;;;;;5088862;28;20034;-78
2022/06/14 02:18:37;;;;;;;5.50;2.20;;;564.00;1843.20;;;;;;5091438;28;20057;-77
2022/06/14 02:21:08;;;;;;;9.63;3.05;;;564.10;1843.20;;;;;;5096326;28;20111;-77
2022/06/14 02:23:39;;;;;;;2.85;1.98;;;564.10;1843.20;;;;;;5091836;28;20067;-77
2022/06/14 02:26:10;;;;;;;3.72;2.17;;;564.10;1843.20;;;;;;5089233;28;20012;-77
2022/06/14 02:28:41;;;;;;;4.45;2.00;;;564.00;1843.20;;;;;;5091910;28;20028;-77
2022/06/14 02:31:33;;;;;;;4.38;1.80;;;564.00;1868.80;;;;;;5096693;28;20017;-78
2022/06/14 02:34:05;;;;;;;3.05;2.00;;;564.00;1868.80;;;;;;5023452;28;20068;-77
2022/06/14 02:36:43;;;;;;;4.72;2.30;;;564.10;1868.80;;;;;;5049506;28;20511;-77
2022/06/14 02:39:14;;;;;;;4.20;2.60;;;564.00;1868.80;;;;;;5030769;28;20032;-77
2022/06/14 02:41:59;;;;;;;2.65;1.80;;;563.90;1894.40;;;;;;5050394;28;20220;-78
2022/06/14 02:44:30;;;;;;;3.67;2.90;;;563.70;2201.60;;;;;;5059250;28;20041;-77
2022/06/14 02:47:23;;;;;;;3.08;2.03;;;563.70;1920.00;;;;;;5036537;28;20058;-78
2022/06/14 02:49:58;;;;;;;3.45;1.63;;;563.50;1971.20;;;;;;5058968;28;20063;-77
2022/06/14 02:52:39;;;;;;;2.83;2.00;;;563.40;1996.80;;;;;;5053407;28;20044;-77
2022/06/14 02:55:28;;;;;;;3.72;2.25;;;563.30;2022.40;;;;;;5053245;28;20626;-78
2022/06/14 02:58:05;;;;;;;5.47;2.28;;;563.20;2048.00;;;;;;5051575;28;20029;-77
2022/06/14 03:00:40;;;;;;;4.07;1.77;;;563.20;2048.00;;;;;;5051169;28;20021;-77
2022/06/14 03:03:13;;;;;;;3.30;1.98;;;563.20;2073.60;;;;;;5050530;28;20112;-77
2022/06/14 03:06:11;;;;;;;3.58;2.53;;;538.50;2073.60;;;;;;5036383;28;20041;-77
2022/06/14 03:08:57;;;;;;;3.63;1.98;;;538.50;2099.20;;;;;;5001962;28;20034;-77
2022/06/14 03:11:25;;;;;;;3.00;1.92;;;538.30;2124.80;;;;;;5018502;28;20046;-76
2022/06/14 03:14:46;;;;;;;3.15;1.80;;;538.20;2150.40;;;;;;5023359;28;20025;-77
2022/06/14 03:17:44;;;;;;;3.40;2.28;;;538.30;2176.00;;;;;;4984159;28;20448;-77
2022/06/14 03:20:19;;;;;;;3.80;2.40;;;538.20;2201.60;;;;;;4977071;28;20046;-77
2022/06/14 03:22:53;;;;;;;3.40;2.00;;;538.00;2227.20;;;;;;4993318;28;20022;-77
2022/06/14 03:25:35;;;;;;;5.35;2.58;;;538.00;2252.80;;;;;;4993600;28;20114;-77
2022/06/14 03:28:15;;;;;;;6.40;2.42;;;537.90;2278.40;;;;;;4993625;28;20033;-78
2022/06/14 03:30:46;;;;;;;7.72;2.40;;;537.90;2304.00;;;;;;4993090;28;20041;-78
2022/06/14 03:33:23;;;;;;;5.70;2.45;;;537.60;2355.20;;;;;;5013119;28;20022;-78
2022/06/14 03:35:53;;;;;;;5.20;2.63;;;537.80;2355.20;;;;;;5012893;28;20041;-78
2022/06/14 03:38:46;;;;;;;5.60;2.30;;;537.80;2355.20;;;;;;5012739;28;20030;-77
2022/06/14 03:41:19;;;;;;;5.43;2.05;;;537.70;2380.80;;;;;;5010502;28;20093;-77
2022/06/14 03:43:46;;;;;;;3.33;2.00;;;537.60;2406.40;;;;;;5012488;28;20113;-78
2022/06/14 03:46:25;;;;;;;2.90;1.95;;;537.60;2406.40;;;;;;5012738;28;20037;-77
2022/06/14 03:48:58;;;;;;;5.03;2.08;;;512.80;2380.80;;;;;;5012807;28;20044;-77
2022/06/14 03:51:32;;;;;;;4.78;2.35;;;512.90;2380.80;;;;;;5066782;28;20036;-78
2022/06/14 03:54:01;;;;;;;6.60;2.15;;;512.70;2380.80;;;;;;5095915;28;20031;-77
2022/06/14 03:56:45;;;;;;;5.35;2.92;;;512.70;2380.80;;;;;;5106693;28;20016;-77
2022/06/14 03:59:45;;;;;;;8.73;3.00;;;512.90;2380.80;;;;;;5108997;28;20016;-78
2022/06/14 04:02:53;;;;;;;3.75;1.98;;;512.60;2380.80;;;;;;5090479;28;20073;-77
2022/06/14 04:05:22;;;;;;;4.45;2.03;;;512.80;2380.80;;;;;;5108658;28;20076;-77
2022/06/14 04:07:51;;;;;;;3.33;2.08;;;512.90;2380.80;;;;;;5108922;28;20074;-77
2022/06/14 04:10:26;;;;;;;6.60;2.00;;;537.60;2406.40;;;;;;5107709;28;20030;-78
2022/06/14 04:13:06;;;;;;;4.60;2.22;;;537.60;2406.40;;;;;;5108196;28;20028;-78
2022/06/14 04:15:39;;;;;;;5.63;2.38;;;537.60;2406.40;;;;;;5104356;28;20036;-77
2022/06/14 04:18:35;;;;;;;3.40;1.70;;;537.60;2406.40;;;;;;5093924;28;20036;-78
2022/06/14 04:21:13;;;;;;;3.53;2.10;;;537.60;2380.80;;;;;;5107946;28;20103;-77
2022/06/14 04:23:45;;;;;;;4.07;1.95;;;537.70;2380.80;;;;;;5087994;28;20160;-77
2022/06/14 04:26:39;;;;;;;5.47;2.08;;;537.70;2355.20;;;;;;5111146;28;20550;-77
2022/06/14 04:29:31;;;;;;;5.53;2.53;;;537.60;2380.80;;;;;;5107303;28;20016;-78
2022/06/14 04:32:14;;;;;;;6.78;2.45;;;537.60;2380.80;;;;;;5105449;28;20027;-78
2022/06/14 04:35:04;;;;;;;4.13;2.25;;;537.60;2406.40;;;;;;5094519;28;20028;-77
2022/06/14 04:37:45;;;;;;;5.30;2.28;;;537.60;2406.40;;;;;;5111384;28;20012;-76
2022/06/14 04:40:18;;;;;;;5.50;2.55;;;512.80;2380.80;;;;;;5108174;28;20051;-76
2022/06/14 04:42:52;;;;;;;2.95;1.90;;;537.60;2406.40;;;;;;5107878;28;20016;-76
2022/06/14 04:45:55;;;;;;;4.18;2.28;;;512.90;2380.80;;;;;;5109316;28;20033;-77
2022/06/14 04:49:12;;;;;;;4.93;2.50;;;537.60;2406.40;;;;;;5106101;28;20032;-77
2022/06/14 04:51:43;;;;;;;5.13;2.30;;;537.70;2406.40;;;;;;5024389;28;20035;-77
2022/06/14 04:54:19;;;;;;;4.05;2.20;;;537.60;2406.40;;;;;;5022102;28;20083;-77
2022/06/14 04:56:56;;;;;;;4.80;2.25;;;512.90;2380.80;;;;;;5022164;28;20141;-77
2022/06/14 04:59:33;;;;;;;6.82;2.60;;;512.80;2380.80;;;;;;5001524;28;20373;-78
2022/06/14 05:02:15;;;;;;;4.35;2.20;;;537.60;2406.40;;;;;;5004980;28;20024;-77
2022/06/14 05:04:48;;;;;;;4.30;2.35;;;512.90;2380.80;;;;;;5001457;28;20041;-77
2022/06/14 05:07:22;;;;;;;6.68;2.33;;;537.60;2406.40;;;;;;5008947;28;20030;-78
2022/06/14 05:09:51;;;;;;;6.57;2.28;;;537.60;2406.40;;;;;;4997008;28;20038;-75
2022/06/14 05:12:28;;;;;;;3.58;2.20;;;537.80;2406.40;;;;;;5007021;28;20081;-76
2022/06/14 05:15:03;;;;;;;8.50;2.65;;;537.80;2406.40;;;;;;5011208;28;20121;-78
2022/06/14 05:17:37;;;;;;;3.03;2.00;;;537.80;2406.40;;;;;;5023752;28;20026;-77
2022/06/14 05:20:34;;;;;;;4.35;2.53;;;537.80;2406.40;;;;;;5011449;28;20037;-76
2022/06/14 05:23:02;;;;;;;4.25;2.63;;;537.80;2406.40;;;;;;5070304;28;20035;-76
2022/06/14 05:25:40;;;;;;;3.45;2.10;;;537.80;2406.40;;;;;;5094496;28;20037;-78
2022/06/14 05:28:11;;;;;;;2.80;1.80;;;537.90;2406.40;;;;;;5107527;28;20026;-78
2022/06/14 05:30:52;;;;;;;8.02;2.33;;;538.00;2406.40;;;;;;5106467;28;20420;-83
2022/06/14 05:33:21;;;;;;;8.57;2.22;;;538.00;2406.40;;;;;;5092437;28;20022;-78
2022/06/14 05:36:04;;;;;;;4.93;2.33;;;538.10;2406.40;;;;;;5126973;27;20516;-79
2022/06/14 05:38:56;;;;;;;6.10;2.08;;;538.20;2380.80;;;;;;5115531;27;20106;-79
2022/06/14 05:41:32;;;;;;;7.43;2.22;;;538.20;2406.40;;;;;;5105986;28;20062;-77
2022/06/14 05:44:03;;;;;;;;;;;538.40;2355.20;;;;;;5093011;28;20384;-79
2022/06/14 05:46:35;;;;;;;7.13;2.60;;;538.30;2329.60;;;;;;5090457;28;20285;-79
2022/06/14 05:49:04;;;;;;;3.30;2.13;;;538.40;2304.00;;;;;;5091000;28;20410;-78
2022/06/14 05:51:40;;;;;;;3.50;2.00;;;538.40;2329.60;;;;;;5092282;28;20019;-78
2022/06/14 05:54:23;;;;;;;6.30;2.47;;;538.50;2380.80;;;;;;5090970;28;20028;-80
2022/06/14 05:57:02;;;;;;;6.32;2.03;;;563.40;2304.00;;;;;;5089186;28;20028;-78
2022/06/14 05:59:49;;;;;;;9.82;2.47;;;563.40;2304.00;;;;;;5111531;28;20081;-79
2022/06/14 06:02:28;;;;;;;8.02;2.70;;;563.40;2278.40;;;;;;5111825;28;20030;-79
2022/06/14 06:05:17;;;;;;;9.07;1.90;;;563.40;2252.80;;;;;;5111533;28;20020;-79
2022/06/14 06:07:58;;;;;;;5.13;2.50;;;563.40;2355.20;;;;;;5083714;28;20082;-78
2022/06/14 06:10:33;;;;;;;6.65;2.17;;;563.40;2329.60;;;;;;5098149;28;20062;-78
2022/06/14 06:13:07;;;;;;;5.45;2.15;;;563.50;2329.60;;;;;;5092376;28;20416;-80
2022/06/14 06:15:41;;;;;;;4.70;2.08;;;563.50;2304.00;;;;;;5091674;28;20032;-81
2022/06/14 06:18:19;;;;;;;8.45;1.90;;;563.80;2227.20;;;;;;5112265;28;20024;-79
2022/06/14 06:20:57;;;;;;;4.03;2.20;;;564.10;2176.00;;;;;;5095051;28;20085;-78
2022/06/14 06:23:32;;;;;;;4.50;1.90;;;564.00;2227.20;;;;;;5092511;28;20043;-79
2022/06/14 06:25:58;;;;;;;5.00;2.10;;;564.10;2150.40;;;;;;5091274;28;20036;-80
2022/06/14 06:28:25;;;;;;;4.45;2.35;;;564.10;2124.80;;;;;;5112847;28;20047;-79
2022/06/14 06:30:54;;;;;;;3.47;2.30;;;588.80;2124.80;;;;;;5112448;28;20024;-78
2022/06/14 06:33:21;;;;;;;7.00;2.28;;;588.80;2099.20;;;;;;5112504;28;20026;-79
2022/06/14 06:36:14;;;;;;;5.72;2.40;;;589.00;2099.20;;;;;;5111277;28;20036;-79
2022/06/14 06:38:59;;;;;;;6.10;2.25;;;589.10;2099.20;;;;;;5112765;28;20028;-79
2022/06/14 06:41:49;;;;;;;5.55;2.08;;;589.00;2022.40;;;;;;5131215;28;20043;-79
2022/06/14 06:44:53;;;;;;;7.80;2.03;;;589.20;2073.60;;;;;;5130491;28;20503;-78
2022/06/14 06:47:35;;;;;;;3.55;2.03;;;589.20;2048.00;;;;;;5104141;28;20088;-77
2022/06/14 06:50:19;;;;;;;6.35;2.40;;;589.30;2022.40;;;;;;5108098;28;20030;-78
2022/06/14 06:53:12;;;;;;;3.28;2.15;;;589.40;1971.20;;;;;;5097835;28;20039;-77
2022/06/14 06:56:08;;;;;;;8.25;2.30;;;589.50;1996.80;;;;;;5094037;28;20392;-78
2022/06/14 06:58:38;;;;;;;3.45;2.03;;;589.50;1945.60;;;;;;5107405;28;20046;-78
2022/06/14 07:01:16;;;;;;;3.22;2.33;;;589.60;1996.80;;;;;;5132983;28;20110;-78
2022/06/14 07:03:47;;;;;;;5.20;2.15;;;589.70;1843.20;;;;;;5113874;28;20472;-79
2022/06/14 07:06:26;;;;;;;4.93;2.10;;;589.70;1817.60;;;;;;5114266;28;20027;-78
2022/06/14 07:08:58;;;;;;;4.85;1.70;;;589.70;1817.60;;;;;;5105294;28;20064;-78
2022/06/14 07:11:30;;;;;;;4.07;2.08;;;614.50;1817.60;;;;;;5113999;28;20020;-78
2022/06/14 07:14:03;;;;;;;4.53;2.00;;;614.40;1715.20;;;;;;5123624;28;20495;-78
2022/06/14 07:16:34;;;;;;;5.13;2.28;;;614.70;1689.60;;;;;;5095603;28;20035;-78
2022/06/14 07:19:14;;;;;;;3.28;1.83;;;614.80;1664.00;;;;;;5123963;28;20016;-78
2022/06/14 07:21:48;;;;;;;6.18;2.40;;;615.00;1689.60;;;;;;5108213;28;20481;-79
2022/06/14 07:24:24;;;;;;;9.00;2.28;;;615.00;1689.60;;;;;;5121950;28;20479;-78
2022/06/14 07:26:54;;;;;;;4.68;2.33;;;614.80;1638.40;;;;;;5099291;28;20053;-78
2022/06/14 07:29:40;;;;;;;5.53;2.42;;;614.80;1664.00;;;;;;5117801;27;20409;-78
2022/06/14 07:32:26;;;;;;;11.02;2.50;;;615.00;1664.00;;;;;;5103606;27;20023;-78
2022/06/14 07:34:53;;;;;;;6.00;2.35;;;615.20;1664.00;;;;;;5117723;27;20122;-77
2022/06/14 07:37:31;;;;;;;4.35;1.90;;;615.30;1587.20;;;;;;5130759;27;20031;-77
2022/06/14 07:40:03;;;;;;;5.95;2.28;;;640.20;1561.60;;;;;;5128986;27;20171;-77
2022/06/14 07:42:43;;;;;;;5.03;2.05;;;640.20;1561.60;;;;;;5110664;28;20039;-78
2022/06/14 07:45:35;;;;;;;3.83;2.03;;;640.20;1536.00;;;;;;5119747;27;20052;-77
2022/06/14 07:48:15;;;;;;;3.30;1.85;;;640.20;1536.00;;;;;;5120903;27;20019;-77
2022/06/14 07:50:45;;;;;;;4.18;2.03;;;640.00;1510.40;;;;;;5117303;27;20149;-77
2022/06/14 07:53:12;;;;;;;3.85;2.05;;;640.20;1510.40;;;;;;5135784;27;20023;-77
2022/06/14 07:55:53;;;;;;;4.60;2.22;;;640.30;1510.40;;;;;;5135955;27;20032;-77
2022/06/14 07:58:46;;;;;;;3.97;2.08;;;640.40;1459.20;;;;;;5123253;27;20015;-76
2022/06/14 08:01:20;;;;;;;4.10;2.20;;;640.60;1433.60;;;;;;5109606;28;20028;-76
2022/06/14 08:04:04;;;;;;;6.00;2.13;;;640.60;1433.60;;;;;;5110418;28;20073;-79
2022/06/14 08:06:36;;;;;;;5.90;2.08;;;640.70;1408.00;;;;;;5111307;28;21044;-79
2022/06/14 08:09:14;;;;;;;6.90;2.00;;;640.80;1382.40;;;;;;5106462;28;20023;-77
2022/06/14 08:11:49;;;;;;;4.10;1.88;;;640.80;1382.40;;;;;;5130407;27;20568;-77
2022/06/14 08:14:21;;;;;;;5.60;1.83;;;640.70;1356.80;;;;;;5132133;27;20031;-77
2022/06/14 08:16:48;;;;;;;4.95;2.08;;;665.60;1433.60;;;;;;5102170;28;20101;-78
2022/06/14 08:19:24;;;;;;;4.15;2.05;;;665.60;1433.60;;;;;;5107821;27;20019;-79
2022/06/14 08:21:54;;;;;;;7.63;1.92;;;665.60;1382.40;;;;;;5107947;28;20031;-78
2022/06/14 08:24:25;;;;;;;5.65;1.88;;;640.70;1356.80;;;;;;5130747;27;20037;-77
2022/06/14 08:26:54;;;;;;;5.82;2.08;;;640.60;1382.40;;;;;;5101135;28;20016;-78
2022/06/14 08:29:33;;;;;;;5.15;1.80;;;640.90;1382.40;;;;;;5114426;28;20023;-77
2022/06/14 08:32:12;;;;;;;4.63;2.35;;;665.70;1382.40;;;;;;5102646;28;20016;-77
2022/06/14 08:35:16;;;;;;;4.05;1.90;;;665.60;1331.20;;;;;;5130276;27;20027;-76
2022/06/14 08:37:56;;;;;;;3.03;1.50;;;665.60;1280.00;;;;;;5017763;28;20041;-77
2022/06/14 08:40:40;;;;;;;4.03;1.90;;;665.70;1331.20;;;;;;5015165;28;20111;-77
2022/06/14 08:43:12;;;;;;;4.57;2.08;;;665.70;1331.20;;;;;;5015162;28;20041;-78
2022/06/14 08:45:54;;;;;;;6.70;2.00;;;665.90;1331.20;;;;;;4998620;28;20477;-77
2022/06/14 08:48:38;;;;;;;7.43;2.65;;;666.00;1280.00;;;;;;5005906;28;20030;-76
2022/06/14 08:51:10;;;;;;;5.03;2.22;;;666.00;1280.00;;;;;;5011494;28;20033;-77
2022/06/14 08:53:57;;;;;;;4.57;2.00;;;666.40;1305.60;;;;;;4990264;28;20030;-77
2022/06/14 08:57:03;;;;;;;4.18;2.17;;;666.30;1305.60;;;;;;4994008;28;20044;-77
2022/06/14 08:59:32;;;;;;;7.20;2.30;;;666.00;1280.00;;;;;;5011184;28;20077;-76
2022/06/14 09:02:28;;;;;;;5.65;1.95;;;666.10;1254.40;;;;;;5021435;28;20117;-78
2022/06/14 09:05:25;;;;;;;5.27;2.50;;;666.20;1280.00;;;;;;5025465;28;20153;-78
2022/06/14 09:08:18;;;;;;;5.03;1.90;;;666.30;1280.00;;;;;;5011355;28;20303;-78
2022/06/14 09:10:55;;;;;;;5.10;2.35;;;666.20;1305.60;;;;;;5005654;28;20414;-77
2022/06/14 09:13:29;;;;;;;6.35;2.17;;;666.40;1254.40;;;;;;5014157;28;20045;-78
2022/06/14 09:16:18;;;;;;;4.22;2.17;;;666.30;1280.00;;;;;;5102773;28;20028;-78
2022/06/14 09:19:14;;;;;;;4.72;2.15;;;691.20;1203.20;;;;;;5105189;28;20382;-77
2022/06/14 09:22:03;;;;;;;5.80;3.10;;;666.40;1228.80;;;;;;5094283;28;20036;-79
2022/06/14 09:24:59;;;;;;;5.32;2.40;;;666.30;1254.40;;;;;;5108158;27;20031;-77
2022/06/14 09:27:47;;;;;;;7.05;1.88;;;691.20;1254.40;;;;;;5134191;27;20023;-79
2022/06/14 09:30:37;;;;;;;13.73;2.97;;;691.30;1228.80;;;;;;5134361;27;20027;-79
2022/06/14 09:33:38;;;;;;;5.18;1.98;;;666.30;1203.20;;;;;;5108801;27;20563;-79
2022/06/14 09:36:16;;;;;;;6.28;2.28;;;666.00;1228.80;;;;;;5013887;28;20038;-78
2022/06/14 09:39:00;;;;;;;7.28;2.40;;;666.50;1228.80;;;;;;5030903;28;20487;-77
2022/06/14 09:41:37;;;;;;;7.85;2.38;;;691.40;1177.60;;;;;;4981542;28;20050;-78
2022/06/14 09:44:21;;;;;;;8.35;2.67;;;691.20;1203.20;;;;;;5024301;28;20033;-78
2022/06/14 09:47:16;;;;;;;3.97;2.33;;;691.60;1203.20;;;;;;4991941;28;20093;-78
2022/06/14 09:50:18;;;;;;;7.10;2.17;;;691.60;1203.20;;;;;;4988818;28;20081;-78
2022/06/14 09:53:02;;;;;;;15.60;2.78;;;691.80;1203.20;;;;;;4989098;28;20092;-78
2022/06/14 09:55:43;;;;;;;3.13;2.20;;;692.10;1203.20;;;;;;5018163;28;20125;-76
2022/06/14 09:58:27;;;;;;;5.13;1.90;;;716.80;1203.20;;;;;;5008247;28;20036;-78
2022/06/14 10:00:56;;;;;;;6.43;2.10;;;716.80;1203.20;;;;;;4993729;28;20018;-78
2022/06/14 10:03:40;;;;;;;6.90;2.47;;;717.10;1177.60;;;;;;4993565;28;20472;-77
2022/06/14 10:06:30;;;;;;;7.07;2.70;;;717.30;1152.00;;;;;;4993514;28;20480;-77
2022/06/14 10:09:04;;;;;;;5.05;2.28;;;717.40;1152.00;;;;;;5009986;28;20040;-78
2022/06/14 10:11:57;;;;;;;8.80;2.30;;;742.40;1152.00;;;;;;5046616;28;20063;-77
2022/06/14 10:14:22;;;;;;;6.45;3.10;;;742.50;1177.60;;;;;;5095700;28;20497;-78
2022/06/14 10:17:23;;;;;;;4.53;2.55;;;742.80;1152.00;;;;;;5119964;27;20032;-76
2022/06/14 10:20:10;;;;;;;3.78;2.40;;;742.80;1100.80;;;;;;5128946;27;20026;-77
2022/06/14 10:22:54;;;;;;;5.15;2.30;;;742.90;1100.80;;;;;;5104332;28;20035;-77
2022/06/14 10:28:41;;;;;;;6.25;2.50;;;717.40;1126.40;;;;;;5133717;27;20033;-77
2022/06/14 10:31:28;;;;;;;11.25;2.70;;;717.00;1126.40;;;;;;5113907;28;20031;-77
2022/06/14 10:34:05;;;;;;;7.22;2.65;;;717.50;1126.40;;;;;;5108002;28;20538;-77
2022/06/14 10:37:12;;;;;;;5.90;2.40;;;742.50;1100.80;;;;;;5118652;28;20116;-77
2022/06/14 10:39:49;;;;;;;;;;;742.40;1152.00;;;;;;5030060;28;20033;-76
2022/06/14 10:42:34;;;;;;;3.33;2.42;;;717.10;1177.60;;;;;;5009890;28;19967;-77
2022/06/14 10:45:11;;;;;;;3.45;1.92;;;716.90;1177.60;;;;;;5016281;28;20022;-78
2022/06/14 10:47:47;;;;;;;6.15;2.67;;;716.90;1152.00;;;;;;5025954;28;20067;-78
2022/06/14 10:50:27;;;;;;;6.07;2.10;;;717.40;1100.80;;;;;;5013033;28;20026;-78
2022/06/14 10:53:31;;;;;;;5.13;2.70;;;742.50;1126.40;;;;;;5013218;28;20608;-77
2022/06/14 10:56:05;;;;;;;6.63;2.30;;;742.80;1100.80;;;;;;4951386;28;20532;-78
2022/06/14 10:58:37;;;;;;;4.20;2.38;;;743.00;1075.20;;;;;;4951873;29;20047;-78
2022/06/14 11:01:14;;;;;;;4.65;2.20;;;743.10;1075.20;;;;;;4938204;29;20043;-79
2022/06/14 11:04:12;;;;;;;4.05;2.17;;;742.70;1100.80;;;;;;4954317;29;20042;-77
2022/06/14 11:07:08;;;;;;;7.00;2.42;;;717.50;1100.80;;;;;;4856708;29;20111;-79
2022/06/14 11:10:04;;;;;;;5.90;2.10;;;717.10;1126.40;;;;;;4846952;29;20086;-78
2022/06/14 11:12:44;;;;;;;9.27;2.00;;;716.90;1126.40;;;;;;4858031;29;20069;-78
2022/06/14 11:15:19;;;;;;;5.70;2.38;;;742.40;1126.40;;;;;;4855240;29;20127;-78
2022/06/14 11:18:02;;;;;;;7.38;2.28;;;717.30;1126.40;;;;;;4915294;29;20483;-78
2022/06/14 11:20:51;;;;;;;4.63;2.72;;;717.00;1126.40;;;;;;4915780;29;20036;-79
2022/06/14 11:23:30;;;;;;;4.15;2.40;;;716.80;1152.00;;;;;;4878752;29;20181;-79
2022/06/14 11:26:17;;;;;;;5.38;2.17;;;692.00;1152.00;;;;;;4865703;29;20033;-78
2022/06/14 11:29:13;;;;;;;3.20;2.13;;;717.00;1177.60;;;;;;4878467;29;20181;-77
2022/06/14 11:32:02;;;;;;;3.60;2.10;;;716.80;1152.00;;;;;;4911561;29;20036;-76
2022/06/14 11:34:42;;;;;;;5.55;2.17;;;692.00;1100.80;;;;;;4930917;29;20063;-77
2022/06/14 11:37:33;;;;;;;3.30;1.67;;;691.70;1100.80;;;;;;4930294;29;20139;-76
2022/06/14 11:40:15;;;;;;;5.40;2.47;;;692.00;1126.40;;;;;;4928220;29;20044;-76
2022/06/14 11:43:22;;;;;;;4.88;1.98;;;716.90;1152.00;;;;;;4975484;28;20113;-75
2022/06/14 11:46:05;;;;;;;6.07;1.90;;;717.50;1126.40;;;;;;5051175;28;20025;-76
2022/06/14 11:48:34;;;;;;;6.57;2.33;;;742.60;1126.40;;;;;;5051066;28;20025;-75
2022/06/14 11:51:28;;;;;;;4.82;2.00;;;742.80;1100.80;;;;;;5041477;28;20483;-76
2022/06/14 11:54:15;;;;;;;4.90;1.90;;;743.00;1100.80;;;;;;5051978;28;20044;-76
2022/06/14 11:56:56;;;;;;;4.78;1.67;;;768.10;1075.20;;;;;;5052608;28;20142;-76
2022/06/14 11:59:22;;;;;;;3.50;1.80;;;743.30;1049.60;;;;;;5037686;28;20552;-77
2022/06/14 12:02:23;;;;;;;10.05;2.10;;;742.90;1075.20;;;;;;5124923;27;20019;-76
2022/06/14 12:05:10;;;;;;;4.43;1.75;;;742.60;1075.20;;;;;;5032366;28;20083;-76
2022/06/14 12:07:39;;;;;;;4.38;2.40;;;742.40;1100.80;;;;;;5023036;28;20042;-76
2022/06/14 12:10:31;;;;;;;6.15;2.45;;;717.40;1100.80;;;;;;5012087;28;20102;-75
2022/06/14 12:13:21;;;;;;;7.30;2.63;;;717.10;1126.40;;;;;;5011865;28;20030;-76
2022/06/14 12:16:08;;;;;;;4.78;2.13;;;717.10;1126.40;;;;;;5012192;28;20065;-75
2022/06/14 12:18:37;;;;;;;4.35;2.17;;;742.40;1152.00;;;;;;5011657;28;20516;-75
2022/06/14 12:21:23;;;;;;;5.47;2.10;;;717.40;1100.80;;;;;;5011779;28;20034;-76
2022/06/14 12:23:54;;;;;;;4.28;1.98;;;717.00;1100.80;;;;;;5010494;28;20027;-74
2022/06/14 12:26:35;;;;;;;3.85;1.95;;;717.40;1075.20;;;;;;5009244;28;20102;-76
2022/06/14 12:29:09;;;;;;;4.57;2.20;;;742.50;1075.20;;;;;;5009270;28;20105;-76
2022/06/14 12:32:09;;;;;;;6.78;1.90;;;742.90;1075.20;;;;;;5011861;28;20164;-77
2022/06/14 12:34:39;;;;;;;3.70;2.20;;;717.50;1049.60;;;;;;5004079;28;20022;-76
2022/06/14 12:37:29;;;;;;;5.00;2.63;;;717.30;1049.60;;;;;;5011014;28;20034;-75
2022/06/14 12:40:20;;;;;;;4.18;1.98;;;742.50;1075.20;;;;;;5102027;28;20036;-75
2022/06/14 12:43:11;;;;;;;6.07;1.92;;;742.80;1024.00;;;;;;5107515;28;20058;-76
2022/06/14 12:45:42;;;;;;;10.13;2.83;;;743.20;998.40;;;;;;5109517;28;20529;-76
2022/06/14 12:48:27;;;;;;;4.25;2.17;;;768.10;998.40;;;;;;5113632;28;20519;-75
2022/06/14 12:51:18;;;;;;;3.33;2.22;;;768.50;998.40;;;;;;5107006;28;20016;-75
2022/06/14 12:53:54;;;;;;;6.15;1.90;;;768.80;972.80;;;;;;5102433;28;20035;-76
2022/06/14 12:56:31;;;;;;;6.18;2.50;;;768.80;972.80;;;;;;5107096;28;20043;-75
2022/06/14 12:59:28;;;;;;;3.75;2.10;;;768.50;972.80;;;;;;5109548;28;20047;-79
2022/06/14 13:01:57;;;;;;;4.72;2.58;;;768.60;972.80;;;;;;5108881;28;20028;-76
2022/06/14 13:04:33;;;;;;;5.40;2.33;;;768.70;972.80;;;;;;5107908;28;20028;-76
2022/06/14 13:07:01;;;;;;;6.32;2.25;;;768.60;972.80;;;;;;5107105;28;20030;-75
2022/06/14 13:10:14;;;;;;;8.85;3.65;;;768.70;947.20;;;;;;5108652;28;20020;-76
2022/06/14 13:12:51;;;;;;;7.60;3.22;;;768.10;998.40;;;;;;5020385;28;20056;-76
2022/06/14 13:15:32;;;;;;;7.40;2.42;;;743.00;1024.00;;;;;;5030649;28;20161;-75
2022/06/14 13:18:31;;;;;;;8.32;3.45;;;742.80;1049.60;;;;;;5010025;28;20052;-76
2022/06/14 13:21:23;;;;;;;8.90;2.60;;;742.60;1049.60;;;;;;5023182;28;20043;-76
2022/06/14 13:23:49;;;;;;;11.55;2.65;;;743.10;1024.00;;;;;;5030218;28;20096;-76
2022/06/14 13:26:35;;;;;;;5.32;2.58;;;743.30;998.40;;;;;;5029717;28;20025;-78
2022/06/14 13:29:13;;;;;;;4.05;2.08;;;768.00;998.40;;;;;;5010452;28;20104;-76